sensor_id;sensor_type;location;lat;lon;timestamp;pressure;altitude;pressure_sealevel;temperature;humidity
61906;BME280;47863;55.766;37.672;2023-04-08T00:01:22;100952.41;;;4.58;34.73
61906;BME280;47863;55.766;37.672;2023-04-08T00:03:47;100991.59;;;4.83;34.94
61906;BME280;47863;55.766;37.672;2023-04-08T00:06:13;101017.28;;;4.97;35.05
61906;BME280;47863;55.766;37.672;2023-04-08T00:08:38;101020.97;;;4.94;34.97
61906;BME280;47863;55.766;37.672;2023-04-08T00:11:04;101018.50;;;4.91;35.03
61906;BME280;47863;55.766;37.672;2023-04-08T00:13:29;100989.69;;;4.71;35.10
61906;BME280;47863;55.766;37.672;2023-04-08T00:15:55;101003.72;;;4.73;35.40
61906;BME280;47863;55.766;37.672;2023-04-08T00:18:21;101012.53;;;4.73;35.30
61906;BME280;47863;55.766;37.672;2023-04-08T00:20:46;101019.47;;;4.76;35.07
61906;BME280;47863;55.766;37.672;2023-04-08T00:23:12;101021.38;;;4.74;35.42
61906;BME280;47863;55.766;37.672;2023-04-08T00:25:37;101012.91;;;4.67;35.51
61906;BME280;47863;55.766;37.672;2023-04-08T00:28:03;100975.81;;;4.37;35.55
61906;BME280;47863;55.766;37.672;2023-04-08T00:30:29;101033.22;;;4.68;35.16
61906;BME280;47863;55.766;37.672;2023-04-08T00:32:54;100987.50;;;4.49;35.57
61906;BME280;47863;55.766;37.672;2023-04-08T00:35:20;100977.63;;;4.51;35.12
61906;BME280;47863;55.766;37.672;2023-04-08T00:37:45;101025.78;;;4.73;35.89
61906;BME280;47863;55.766;37.672;2023-04-08T00:40:12;101007.81;;;4.64;35.89
61906;BME280;47863;55.766;37.672;2023-04-08T00:42:38;100997.34;;;4.61;35.66
61906;BME280;47863;55.766;37.672;2023-04-08T00:45:04;101010.53;;;4.63;35.86
61906;BME280;47863;55.766;37.672;2023-04-08T00:47:30;101019.94;;;4.68;35.47
61906;BME280;47863;55.766;37.672;2023-04-08T00:49:55;101021.91;;;4.65;35.89
61906;BME280;47863;55.766;37.672;2023-04-08T00:52:21;101023.06;;;4.61;35.71
61906;BME280;47863;55.766;37.672;2023-04-08T00:54:47;101021.41;;;4.58;36.00
61906;BME280;47863;55.766;37.672;2023-04-08T00:57:12;101014.50;;;4.55;35.83
61906;BME280;47863;55.766;37.672;2023-04-08T00:59:38;101014.78;;;4.51;35.68
61906;BME280;47863;55.766;37.672;2023-04-08T01:02:28;101016.38;;;4.53;36.02
61906;BME280;47863;55.766;37.672;2023-04-08T01:05:09;101023.41;;;4.54;35.65
61906;BME280;47863;55.766;37.672;2023-04-08T01:07:41;101034.88;;;4.55;36.18
61906;BME280;47863;55.766;37.672;2023-04-08T01:10:19;101021.69;;;4.53;36.05
61906;BME280;47863;55.766;37.672;2023-04-08T01:12:53;101015.91;;;4.47;36.27
61906;BME280;47863;55.766;37.672;2023-04-08T01:15:19;101015.84;;;4.48;36.24
61906;BME280;47863;55.766;37.672;2023-04-08T01:17:47;101032.69;;;4.47;36.11
61906;BME280;47863;55.766;37.672;2023-04-08T01:20:15;101020.19;;;4.49;36.38
61906;BME280;47863;55.766;37.672;2023-04-08T01:25:46;101025.56;;;4.48;36.00
61906;BME280;47863;55.766;37.672;2023-04-08T01:28:14;101026.44;;;4.48;35.79
61906;BME280;47863;55.766;37.672;2023-04-08T01:30:41;101027.47;;;4.46;35.46
61906;BME280;47863;55.766;37.672;2023-04-08T01:33:09;101003.72;;;4.28;35.74
61906;BME280;47863;55.766;37.672;2023-04-08T01:35:36;101026.91;;;4.41;35.54
61906;BME280;47863;55.766;37.672;2023-04-08T01:38:05;101024.34;;;4.39;36.17
61906;BME280;47863;55.766;37.672;2023-04-08T01:40:32;101028.97;;;4.35;36.45
61906;BME280;47863;55.766;37.672;2023-04-08T01:42:59;101020.41;;;4.30;35.81
61906;BME280;47863;55.766;37.672;2023-04-08T01:45:27;101029.25;;;4.31;36.47
61906;BME280;47863;55.766;37.672;2023-04-08T01:47:54;101006.25;;;4.15;36.35
61906;BME280;47863;55.766;37.672;2023-04-08T01:50:21;101031.56;;;4.21;36.45
61906;BME280;47863;55.766;37.672;2023-04-08T01:52:48;101008.50;;;4.07;36.28
61906;BME280;47863;55.766;37.672;2023-04-08T01:55:17;101022.63;;;4.08;36.60
61906;BME280;47863;55.766;37.672;2023-04-08T01:57:44;101012.06;;;3.92;36.75
61906;BME280;47863;55.766;37.672;2023-04-08T02:00:12;101022.56;;;3.93;36.57
61906;BME280;47863;55.766;37.672;2023-04-08T02:02:41;101021.88;;;3.90;36.95
61906;BME280;47863;55.766;37.672;2023-04-08T02:05:07;101009.44;;;3.76;37.07
61906;BME280;47863;55.766;37.672;2023-04-08T02:07:33;100982.94;;;3.60;36.71
61906;BME280;47863;55.766;37.672;2023-04-08T02:09:58;101027.53;;;3.84;36.93
61906;BME280;47863;55.766;37.672;2023-04-08T02:12:24;101024.97;;;3.82;36.94
61906;BME280;47863;55.766;37.672;2023-04-08T02:14:52;101025.81;;;3.83;36.78
61906;BME280;47863;55.766;37.672;2023-04-08T02:20:04;100993.81;;;3.55;37.32
61906;BME280;47863;55.766;37.672;2023-04-08T02:25:12;101032.66;;;3.71;37.12
61906;BME280;47863;55.766;37.672;2023-04-08T02:27:39;101029.53;;;3.64;37.28
61906;BME280;47863;55.766;37.672;2023-04-08T02:30:07;101028.91;;;3.59;37.58
61906;BME280;47863;55.766;37.672;2023-04-08T02:32:35;101032.75;;;3.53;37.65
61906;BME280;47863;55.766;37.672;2023-04-08T02:35:01;101033.97;;;3.48;37.51
61906;BME280;47863;55.766;37.672;2023-04-08T02:37:29;101035.09;;;3.44;37.75
61906;BME280;47863;55.766;37.672;2023-04-08T02:39:55;101034.41;;;3.40;37.88
61906;BME280;47863;55.766;37.672;2023-04-08T02:42:21;101012.59;;;3.19;38.08
61906;BME280;47863;55.766;37.672;2023-04-08T02:44:46;101033.09;;;3.31;37.93
61906;BME280;47863;55.766;37.672;2023-04-08T02:47:12;101018.66;;;3.21;37.74
61906;BME280;47863;55.766;37.672;2023-04-08T02:49:37;101044.31;;;3.36;37.77
61906;BME280;47863;55.766;37.672;2023-04-08T02:52:03;101031.13;;;3.35;37.69
61906;BME280;47863;55.766;37.672;2023-04-08T02:54:29;101043.28;;;3.39;37.58
61906;BME280;47863;55.766;37.672;2023-04-08T02:56:54;101003.09;;;3.15;37.64
61906;BME280;47863;55.766;37.672;2023-04-08T02:59:20;101008.56;;;3.28;37.77
61906;BME280;47863;55.766;37.672;2023-04-08T03:01:45;101046.97;;;3.52;37.47
61906;BME280;47863;55.766;37.672;2023-04-08T03:04:11;101045.84;;;3.56;37.60
61906;BME280;47863;55.766;37.672;2023-04-08T03:06:36;101048.41;;;3.58;37.65
61906;BME280;47863;55.766;37.672;2023-04-08T03:09:02;101050.31;;;3.56;37.75
61906;BME280;47863;55.766;37.672;2023-04-08T03:11:27;101050.22;;;3.57;37.60
61906;BME280;47863;55.766;37.672;2023-04-08T03:13:53;101034.56;;;3.53;37.97
61906;BME280;47863;55.766;37.672;2023-04-08T03:16:18;101049.97;;;3.62;37.92
61906;BME280;47863;55.766;37.672;2023-04-08T03:18:44;101054.41;;;3.62;38.20
61906;BME280;47863;55.766;37.672;2023-04-08T03:21:10;101045.59;;;3.61;38.33
61906;BME280;47863;55.766;37.672;2023-04-08T03:23:35;101050.13;;;3.59;38.34
61906;BME280;47863;55.766;37.672;2023-04-08T03:26:01;101009.25;;;3.31;38.17
61906;BME280;47863;55.766;37.672;2023-04-08T03:28:26;101014.06;;;3.41;38.64
61906;BME280;47863;55.766;37.672;2023-04-08T03:30:52;101052.75;;;3.59;38.30
61906;BME280;47863;55.766;37.672;2023-04-08T03:33:17;101049.25;;;3.58;38.38
61906;BME280;47863;55.766;37.672;2023-04-08T03:35:43;101047.88;;;3.67;38.30
61906;BME280;47863;55.766;37.672;2023-04-08T03:38:09;101043.47;;;3.68;38.15
61906;BME280;47863;55.766;37.672;2023-04-08T03:40:34;101058.66;;;3.80;38.56
61906;BME280;47863;55.766;37.672;2023-04-08T03:43:00;101055.66;;;3.86;38.34
61906;BME280;47863;55.766;37.672;2023-04-08T03:45:25;101044.97;;;3.88;38.11
61906;BME280;47863;55.766;37.672;2023-04-08T03:47:51;101015.50;;;3.78;37.95
61906;BME280;47863;55.766;37.672;2023-04-08T03:50:16;101054.34;;;4.09;38.47
61906;BME280;47863;55.766;37.672;2023-04-08T03:52:42;101052.97;;;4.18;38.19
61906;BME280;47863;55.766;37.672;2023-04-08T03:55:08;101051.59;;;4.27;38.43
61906;BME280;47863;55.766;37.672;2023-04-08T03:57:33;101054.72;;;4.33;38.31
61906;BME280;47863;55.766;37.672;2023-04-08T03:59:59;101049.25;;;4.36;38.12
61906;BME280;47863;55.766;37.672;2023-04-08T04:02:24;101064.34;;;4.50;38.08
61906;BME280;47863;55.766;37.672;2023-04-08T04:04:50;101051.72;;;4.54;38.63
61906;BME280;47863;55.766;37.672;2023-04-08T04:07:16;101069.59;;;4.66;38.03
61906;BME280;47863;55.766;37.672;2023-04-08T04:09:41;101041.78;;;4.57;38.29
61906;BME280;47863;55.766;37.672;2023-04-08T04:12:07;101069.22;;;4.72;38.38
61906;BME280;47863;55.766;37.672;2023-04-08T04:14:32;101067.25;;;4.76;38.35
61906;BME280;47863;55.766;37.672;2023-04-08T04:16:58;101067.44;;;4.87;38.65
61906;BME280;47863;55.766;37.672;2023-04-08T04:19:23;101055.13;;;5.01;37.94
61906;BME280;47863;55.766;37.672;2023-04-08T04:21:49;101062.59;;;5.37;38.48
61906;BME280;47863;55.766;37.672;2023-04-08T04:24:14;101065.19;;;5.80;37.76
61906;BME280;47863;55.766;37.672;2023-04-08T04:26:40;101032.25;;;6.10;37.41
61906;BME280;47863;55.766;37.672;2023-04-08T04:29:06;101057.28;;;6.60;36.96
61906;BME280;47863;55.766;37.672;2023-04-08T04:31:31;101067.09;;;7.11;36.91
61906;BME280;47863;55.766;37.672;2023-04-08T04:33:57;101067.06;;;7.37;36.91
61906;BME280;47863;55.766;37.672;2023-04-08T04:36:22;101054.16;;;7.30;37.25
61906;BME280;47863;55.766;37.672;2023-04-08T04:38:48;101045.56;;;7.14;37.31
61906;BME280;47863;55.766;37.672;2023-04-08T04:41:14;101067.94;;;7.11;37.88
61906;BME280;47863;55.766;37.672;2023-04-08T04:43:39;101070.38;;;7.14;37.83
61906;BME280;47863;55.766;37.672;2023-04-08T04:46:05;100987.63;;;6.92;37.54
61906;BME280;47863;55.766;37.672;2023-04-08T04:48:34;101079.19;;;7.90;37.27
61906;BME280;47863;55.766;37.672;2023-04-08T04:51:00;101067.72;;;8.49;36.73
61906;BME280;47863;55.766;37.672;2023-04-08T04:53:27;101072.31;;;8.94;36.70
61906;BME280;47863;55.766;37.672;2023-04-08T04:55:53;101064.19;;;9.18;36.70
61906;BME280;47863;55.766;37.672;2023-04-08T04:58:18;101065.66;;;9.45;36.54
61906;BME280;47863;55.766;37.672;2023-04-08T05:00:44;101057.63;;;9.56;36.70
61906;BME280;47863;55.766;37.672;2023-04-08T05:03:11;101075.34;;;9.80;36.67
61906;BME280;47863;55.766;37.672;2023-04-08T05:05:37;101073.00;;;9.98;36.56
61906;BME280;47863;55.766;37.672;2023-04-08T05:08:02;101036.97;;;10.02;36.25
61906;BME280;47863;55.766;37.672;2023-04-08T05:10:28;101076.66;;;10.61;36.03
61906;BME280;47863;55.766;37.672;2023-04-08T05:12:54;101065.00;;;11.14;35.57
61906;BME280;47863;55.766;37.672;2023-04-08T05:15:19;101052.63;;;11.63;35.24
61906;BME280;47863;55.766;37.672;2023-04-08T05:17:45;101074.81;;;12.35;34.75
61906;BME280;47863;55.766;37.672;2023-04-08T05:20:11;101048.28;;;12.89;34.24
61906;BME280;47863;55.766;37.672;2023-04-08T05:22:37;101070.88;;;13.81;33.90
61906;BME280;47863;55.766;37.672;2023-04-08T05:25:03;101048.97;;;14.29;33.37
61906;BME280;47863;55.766;37.672;2023-04-08T05:27:29;101076.53;;;14.77;33.68
61906;BME280;47863;55.766;37.672;2023-04-08T05:29:54;101087.66;;;15.00;33.43
61906;BME280;47863;55.766;37.672;2023-04-08T05:32:20;101085.22;;;15.15;33.51
61906;BME280;47863;55.766;37.672;2023-04-08T05:34:46;101063.19;;;15.28;33.22
61906;BME280;47863;55.766;37.672;2023-04-08T05:37:11;101057.25;;;15.59;32.51
61906;BME280;47863;55.766;37.672;2023-04-08T05:39:37;101086.66;;;16.13;31.39
61906;BME280;47863;55.766;37.672;2023-04-08T05:42:02;101087.06;;;16.83;31.22
61906;BME280;47863;55.766;37.672;2023-04-08T05:44:28;101089.66;;;17.89;30.63
61906;BME280;47863;55.766;37.672;2023-04-08T05:46:53;101093.75;;;18.85;29.94
61906;BME280;47863;55.766;37.672;2023-04-08T05:49:20;101082.00;;;19.52;29.25
61906;BME280;47863;55.766;37.672;2023-04-08T05:51:45;101090.22;;;20.04;28.82
61906;BME280;47863;55.766;37.672;2023-04-08T05:54:11;101074.44;;;20.35;28.79
61906;BME280;47863;55.766;37.672;2023-04-08T05:56:36;101091.69;;;20.43;28.90
61906;BME280;47863;55.766;37.672;2023-04-08T05:59:02;101092.78;;;20.27;29.11
61906;BME280;47863;55.766;37.672;2023-04-08T06:01:28;101096.69;;;20.03;28.93
61906;BME280;47863;55.766;37.672;2023-04-08T06:03:53;101090.63;;;20.00;28.92
61906;BME280;47863;55.766;37.672;2023-04-08T06:06:21;101092.91;;;20.18;28.66
61906;BME280;47863;55.766;37.672;2023-04-08T06:08:46;101092.06;;;20.39;28.17
61906;BME280;47863;55.766;37.672;2023-04-08T06:11:12;101090.28;;;20.68;27.50
61906;BME280;47863;55.766;37.672;2023-04-08T06:13:38;101090.47;;;20.95;27.14
61906;BME280;47863;55.766;37.672;2023-04-08T06:16:14;101084.06;;;21.37;26.17
61906;BME280;47863;55.766;37.672;2023-04-08T06:18:41;101070.06;;;21.82;26.00
61906;BME280;47863;55.766;37.672;2023-04-08T06:21:07;101088.53;;;22.62;25.61
61906;BME280;47863;55.766;37.672;2023-04-08T06:23:33;101085.34;;;23.31;24.91
61906;BME280;47863;55.766;37.672;2023-04-08T06:25:58;101042.03;;;23.87;24.63
61906;BME280;47863;55.766;37.672;2023-04-08T06:28:24;101094.09;;;24.82;23.95
61906;BME280;47863;55.766;37.672;2023-04-08T06:30:49;101083.59;;;25.41;24.01
61906;BME280;47863;55.766;37.672;2023-04-08T06:33:15;101060.00;;;26.07;22.98
61906;BME280;47863;55.766;37.672;2023-04-08T06:35:40;101079.53;;;26.83;22.31
61906;BME280;47863;55.766;37.672;2023-04-08T06:38:06;101086.16;;;27.18;22.18
61906;BME280;47863;55.766;37.672;2023-04-08T06:40:31;101095.97;;;27.37;22.00
61906;BME280;47863;55.766;37.672;2023-04-08T06:42:57;101092.94;;;27.39;21.98
61906;BME280;47863;55.766;37.672;2023-04-08T06:45:23;101088.53;;;26.90;22.30
61906;BME280;47863;55.766;37.672;2023-04-08T06:47:48;101055.94;;;26.52;22.36
61906;BME280;47863;55.766;37.672;2023-04-08T06:50:14;101083.56;;;26.15;22.41
61906;BME280;47863;55.766;37.672;2023-04-08T06:52:40;101091.88;;;26.08;22.18
61906;BME280;47863;55.766;37.672;2023-04-08T06:55:05;101086.00;;;26.35;21.75
61906;BME280;47863;55.766;37.672;2023-04-08T06:57:31;101080.84;;;26.69;21.25
61906;BME280;47863;55.766;37.672;2023-04-08T06:59:56;101061.16;;;26.96;20.76
61906;BME280;47863;55.766;37.672;2023-04-08T07:02:22;101073.44;;;27.52;20.18
61906;BME280;47863;55.766;37.672;2023-04-08T07:04:48;101085.88;;;28.07;19.87
61906;BME280;47863;55.766;37.672;2023-04-08T07:07:14;101062.34;;;28.62;19.80
61906;BME280;47863;55.766;37.672;2023-04-08T07:09:39;101052.34;;;29.29;19.10
61906;BME280;47863;55.766;37.672;2023-04-08T07:12:07;101082.59;;;29.84;18.33
61906;BME280;47863;55.766;37.672;2023-04-08T07:14:33;101079.59;;;30.13;17.94
61906;BME280;47863;55.766;37.672;2023-04-08T07:16:59;101072.09;;;30.68;17.61
61906;BME280;47863;55.766;37.672;2023-04-08T07:19:24;101040.59;;;31.07;17.05
61906;BME280;47863;55.766;37.672;2023-04-08T07:21:50;101018.47;;;31.75;16.57
61906;BME280;47863;55.766;37.672;2023-04-08T07:24:17;101063.00;;;32.57;16.59
61906;BME280;47863;55.766;37.672;2023-04-08T07:26:43;101084.03;;;32.99;16.13
61906;BME280;47863;55.766;37.672;2023-04-08T07:29:08;101066.88;;;32.76;16.15
61906;BME280;47863;55.766;37.672;2023-04-08T07:31:34;101077.66;;;32.93;15.56
61906;BME280;47863;55.766;37.672;2023-04-08T07:34:00;101075.91;;;33.44;15.58
61906;BME280;47863;55.766;37.672;2023-04-08T07:36:26;101041.09;;;33.67;15.06
61906;BME280;47863;55.766;37.672;2023-04-08T07:38:52;101077.44;;;34.30;14.89
61906;BME280;47863;55.766;37.672;2023-04-08T07:41:18;101081.13;;;34.55;14.81
61906;BME280;47863;55.766;37.672;2023-04-08T07:43:44;101074.91;;;34.68;14.55
61906;BME280;47863;55.766;37.672;2023-04-08T07:46:09;101076.50;;;34.40;13.81
61906;BME280;47863;55.766;37.672;2023-04-08T07:48:35;101075.53;;;34.21;14.03
61906;BME280;47863;55.766;37.672;2023-04-08T07:51:04;101076.97;;;34.52;12.41
61906;BME280;47863;55.766;37.672;2023-04-08T07:53:31;100998.97;;;34.33;14.10
61906;BME280;47863;55.766;37.672;2023-04-08T07:55:58;101077.69;;;34.63;13.89
61906;BME280;47863;55.766;37.672;2023-04-08T07:58:23;101080.19;;;34.65;13.81
61906;BME280;47863;55.766;37.672;2023-04-08T08:00:49;101041.38;;;34.49;13.23
61906;BME280;47863;55.766;37.672;2023-04-08T08:03:15;101065.69;;;34.39;12.99
61906;BME280;47863;55.766;37.672;2023-04-08T08:05:41;101057.09;;;34.35;13.29
61906;BME280;47863;55.766;37.672;2023-04-08T08:08:07;101084.22;;;34.04;12.72
61906;BME280;47863;55.766;37.672;2023-04-08T08:10:36;101081.69;;;33.52;12.92
61906;BME280;47863;55.766;37.672;2023-04-08T08:13:03;101073.34;;;33.47;13.06
61906;BME280;47863;55.766;37.672;2023-04-08T08:15:29;101011.00;;;33.24;12.72
61906;BME280;47863;55.766;37.672;2023-04-08T08:17:55;101067.00;;;34.02;12.88
61906;BME280;47863;55.766;37.672;2023-04-08T08:20:20;101067.28;;;34.45;12.42
61906;BME280;47863;55.766;37.672;2023-04-08T08:22:46;101058.44;;;35.01;12.16
61906;BME280;47863;55.766;37.672;2023-04-08T08:25:11;101070.41;;;35.74;12.26
61906;BME280;47863;55.766;37.672;2023-04-08T08:27:38;101065.69;;;36.12;11.80
61906;BME280;47863;55.766;37.672;2023-04-08T08:30:06;101054.41;;;35.85;12.20
61906;BME280;47863;55.766;37.672;2023-04-08T08:32:32;101061.06;;;35.17;11.97
61906;BME280;47863;55.766;37.672;2023-04-08T08:34:58;101052.38;;;34.70;11.78
61906;BME280;47863;55.766;37.672;2023-04-08T08:37:23;101064.88;;;34.67;11.99
61906;BME280;47863;55.766;37.672;2023-04-08T08:39:49;101059.09;;;34.24;11.71
61906;BME280;47863;55.766;37.672;2023-04-08T08:42:22;101058.78;;;33.11;11.65
61906;BME280;47863;55.766;37.672;2023-04-08T08:44:48;101058.69;;;31.93;12.35
61906;BME280;47863;55.766;37.672;2023-04-08T08:47:15;101064.06;;;31.47;12.61
61906;BME280;47863;55.766;37.672;2023-04-08T08:49:41;101055.31;;;31.70;12.64
61906;BME280;47863;55.766;37.672;2023-04-08T08:52:06;101052.84;;;31.84;12.27
61906;BME280;47863;55.766;37.672;2023-04-08T08:54:32;101054.34;;;32.38;11.99
61906;BME280;47863;55.766;37.672;2023-04-08T08:56:57;101051.31;;;32.39;11.20
61906;BME280;47863;55.766;37.672;2023-04-08T08:59:23;101045.44;;;32.10;11.72
61906;BME280;47863;55.766;37.672;2023-04-08T09:01:49;101027.09;;;31.99;11.50
61906;BME280;47863;55.766;37.672;2023-04-08T09:04:16;101061.28;;;32.25;11.16
61906;BME280;47863;55.766;37.672;2023-04-08T09:07:10;101043.56;;;32.83;11.40
61906;BME280;47863;55.766;37.672;2023-04-08T09:09:50;101024.81;;;33.94;11.26
61906;BME280;47863;55.766;37.672;2023-04-08T09:12:17;101030.69;;;34.62;10.78
61906;BME280;47863;55.766;37.672;2023-04-08T09:14:43;101049.06;;;34.28;10.76
61906;BME280;47863;55.766;37.672;2023-04-08T09:17:08;101040.56;;;34.04;11.12
61906;BME280;47863;55.766;37.672;2023-04-08T09:19:34;101050.22;;;33.77;10.87
61906;BME280;47863;55.766;37.672;2023-04-08T09:22:04;101051.28;;;33.82;10.11
61906;BME280;47863;55.766;37.672;2023-04-08T09:24:31;101055.28;;;33.55;10.57
61906;BME280;47863;55.766;37.672;2023-04-08T09:26:56;101035.06;;;33.99;10.71
61906;BME280;47863;55.766;37.672;2023-04-08T09:29:23;101043.72;;;34.37;10.27
61906;BME280;47863;55.766;37.672;2023-04-08T09:31:55;101052.59;;;34.39;10.41
61906;BME280;47863;55.766;37.672;2023-04-08T09:34:22;101035.41;;;34.66;10.81
61906;BME280;47863;55.766;37.672;2023-04-08T09:36:48;101042.28;;;34.40;10.67
61906;BME280;47863;55.766;37.672;2023-04-08T09:39:15;101040.34;;;33.41;11.07
61906;BME280;47863;55.766;37.672;2023-04-08T09:41:41;101035.44;;;33.07;11.05
61906;BME280;47863;55.766;37.672;2023-04-08T09:44:09;101044.91;;;33.16;10.94
61906;BME280;47863;55.766;37.672;2023-04-08T09:54:40;101035.38;;;34.37;10.66
61906;BME280;47863;55.766;37.672;2023-04-08T09:57:14;101021.03;;;34.54;10.61
61906;BME280;47863;55.766;37.672;2023-04-08T09:59:51;101019.13;;;34.84;10.15
61906;BME280;47863;55.766;37.672;2023-04-08T10:02:29;101022.69;;;35.38;10.06
61906;BME280;47863;55.766;37.672;2023-04-08T10:04:59;101016.25;;;35.61;10.42
61906;BME280;47863;55.766;37.672;2023-04-08T10:07:25;101024.38;;;36.14;10.00
61906;BME280;47863;55.766;37.672;2023-04-08T10:09:51;101016.44;;;36.74;10.12
61906;BME280;47863;55.766;37.672;2023-04-08T10:12:17;101022.78;;;37.07;10.10
61906;BME280;47863;55.766;37.672;2023-04-08T10:17:48;101007.44;;;36.77;9.43
61906;BME280;47863;55.766;37.672;2023-04-08T10:20:43;101007.59;;;36.52;10.07
61906;BME280;47863;55.766;37.672;2023-04-08T10:23:16;101000.16;;;36.48;9.68
61906;BME280;47863;55.766;37.672;2023-04-08T10:25:46;100984.31;;;36.10;9.93
61906;BME280;47863;55.766;37.672;2023-04-08T10:30:43;100995.25;;;35.88;9.35
61906;BME280;47863;55.766;37.672;2023-04-08T10:33:13;100975.56;;;35.60;9.81
61906;BME280;47863;55.766;37.672;2023-04-08T10:35:47;100957.81;;;34.89;9.67
61906;BME280;47863;55.766;37.672;2023-04-08T10:38:15;100993.22;;;34.25;9.85
61906;BME280;47863;55.766;37.672;2023-04-08T10:40:42;100989.69;;;33.69;10.21
61906;BME280;47863;55.766;37.672;2023-04-08T10:43:09;100995.66;;;33.37;10.18
61906;BME280;47863;55.766;37.672;2023-04-08T10:45:35;100992.22;;;33.66;10.35
61906;BME280;47863;55.766;37.672;2023-04-08T10:48:23;100994.19;;;34.39;10.31
61906;BME280;47863;55.766;37.672;2023-04-08T10:51:00;100990.91;;;34.90;10.08
61906;BME280;47863;55.766;37.672;2023-04-08T10:53:31;100971.03;;;34.78;9.72
61906;BME280;47863;55.766;37.672;2023-04-08T10:56:11;100984.63;;;34.21;9.88
61906;BME280;47863;55.766;37.672;2023-04-08T10:58:52;100984.91;;;33.20;10.00
61906;BME280;47863;55.766;37.672;2023-04-08T11:01:20;100973.66;;;32.34;10.34
61906;BME280;47863;55.766;37.672;2023-04-08T11:03:47;100972.88;;;31.30;11.14
61906;BME280;47863;55.766;37.672;2023-04-08T11:06:13;100971.94;;;31.03;11.00
61906;BME280;47863;55.766;37.672;2023-04-08T11:08:40;100972.59;;;31.21;11.16
61906;BME280;47863;55.766;37.672;2023-04-08T11:11:06;100949.22;;;30.91;11.13
61906;BME280;47863;55.766;37.672;2023-04-08T11:13:34;100950.19;;;31.22;11.26
61906;BME280;47863;55.766;37.672;2023-04-08T11:16:02;100973.34;;;31.06;11.05
61906;BME280;47863;55.766;37.672;2023-04-08T11:18:29;100974.75;;;30.66;10.79
61906;BME280;47863;55.766;37.672;2023-04-08T11:20:56;100973.19;;;30.38;10.98
61906;BME280;47863;55.766;37.672;2023-04-08T11:23:24;100962.56;;;29.97;11.12
61906;BME280;47863;55.766;37.672;2023-04-08T11:25:49;100935.41;;;29.62;11.28
61906;BME280;47863;55.766;37.672;2023-04-08T11:28:15;100957.13;;;29.53;11.44
61906;BME280;47863;55.766;37.672;2023-04-08T11:30:42;100957.53;;;28.96;11.55
61906;BME280;47863;55.766;37.672;2023-04-08T11:33:08;100948.13;;;27.90;12.17
61906;BME280;47863;55.766;37.672;2023-04-08T11:35:34;100949.75;;;27.74;12.53
61906;BME280;47863;55.766;37.672;2023-04-08T11:38:03;100949.09;;;28.13;12.35
61906;BME280;47863;55.766;37.672;2023-04-08T11:40:29;100953.16;;;28.61;11.89
61906;BME280;47863;55.766;37.672;2023-04-08T11:42:55;100951.34;;;29.11;11.83
61906;BME280;47863;55.766;37.672;2023-04-08T11:45:21;100942.75;;;29.51;11.87
61906;BME280;47863;55.766;37.672;2023-04-08T11:47:47;100892.19;;;29.45;11.74
61906;BME280;47863;55.766;37.672;2023-04-08T11:50:22;100958.53;;;29.29;11.77
61906;BME280;47863;55.766;37.672;2023-04-08T11:52:49;100917.31;;;28.78;11.97
61906;BME280;47863;55.766;37.672;2023-04-08T11:55:29;100939.97;;;29.24;12.06
61906;BME280;47863;55.766;37.672;2023-04-08T11:57:58;100935.03;;;29.75;11.88
61906;BME280;47863;55.766;37.672;2023-04-08T12:00:25;100930.09;;;30.10;11.84
61906;BME280;47863;55.766;37.672;2023-04-08T12:02:52;100931.56;;;29.63;11.62
61906;BME280;47863;55.766;37.672;2023-04-08T12:05:19;100917.44;;;28.88;11.90
61906;BME280;47863;55.766;37.672;2023-04-08T12:07:45;100917.00;;;28.57;12.16
61906;BME280;47863;55.766;37.672;2023-04-08T12:10:12;100916.34;;;28.33;12.28
61906;BME280;47863;55.766;37.672;2023-04-08T12:12:38;100932.72;;;28.23;12.44
61906;BME280;47863;55.766;37.672;2023-04-08T12:15:05;100943.66;;;27.72;12.68
61906;BME280;47863;55.766;37.672;2023-04-08T12:17:30;100939.50;;;26.77;13.16
61906;BME280;47863;55.766;37.672;2023-04-08T12:19:56;100916.72;;;25.57;13.86
61906;BME280;47863;55.766;37.672;2023-04-08T12:22:22;100924.63;;;24.79;13.94
61906;BME280;47863;55.766;37.672;2023-04-08T12:24:47;100927.25;;;24.49;14.13
61906;BME280;47863;55.766;37.672;2023-04-08T12:27:13;100925.81;;;24.21;14.49
61906;BME280;47863;55.766;37.672;2023-04-08T12:29:38;100890.84;;;23.66;14.87
61906;BME280;47863;55.766;37.672;2023-04-08T12:32:04;100851.25;;;23.37;14.79
61906;BME280;47863;55.766;37.672;2023-04-08T12:34:31;100908.63;;;23.82;14.74
61906;BME280;47863;55.766;37.672;2023-04-08T12:36:57;100899.34;;;23.83;14.38
61906;BME280;47863;55.766;37.672;2023-04-08T12:39:23;100916.75;;;23.95;14.24
61906;BME280;47863;55.766;37.672;2023-04-08T12:41:48;100911.72;;;23.92;14.45
61906;BME280;47863;55.766;37.672;2023-04-08T12:44:14;100905.25;;;24.12;14.54
61906;BME280;47863;55.766;37.672;2023-04-08T12:46:40;100901.41;;;24.63;14.26
61906;BME280;47863;55.766;37.672;2023-04-08T12:49:05;100895.94;;;25.00;14.11
61906;BME280;47863;55.766;37.672;2023-04-08T12:51:31;100904.91;;;25.07;14.43
61906;BME280;47863;55.766;37.672;2023-04-08T12:53:57;100892.88;;;25.08;14.62
61906;BME280;47863;55.766;37.672;2023-04-08T12:56:24;100897.94;;;24.74;14.59
61906;BME280;47863;55.766;37.672;2023-04-08T12:58:50;100892.56;;;24.18;15.12
61906;BME280;47863;55.766;37.672;2023-04-08T13:01:15;100896.94;;;23.30;15.95
61906;BME280;47863;55.766;37.672;2023-04-08T13:03:41;100898.00;;;22.57;16.34
61906;BME280;47863;55.766;37.672;2023-04-08T13:06:07;100722.41;;;20.91;16.70